Time;durP1;ratioP1;P1;durP2;ratioP2;P2;SDS_P1;SDS_P2;PMS_P1;PMS_P2;Temp;Humidity;BMP_temperature;BMP_pressure;BME280_temperature;BME280_humidity;BME280_pressure;Samples;Min_cycle;Max_cycle;Signal;HPM_P1;HPM_P2
2023/08/24 00:01:49;;;;;;;;;;;;;;;26.53;34.14;100488.31;5072026;28;20285;-69
2023/08/24 00:04:14;;;;;;;;;;;;;;;26.50;34.41;100490.84;5087182;28;19920;-69
2023/08/24 00:06:39;;;;;;;;;;;;;;;26.42;34.09;100492.34;5074422;28;19915;-69
2023/08/24 00:09:05;;;;;;;;;;;;;;;26.38;34.12;100486.63;5092730;28;20428;-69
2023/08/24 00:11:31;;;;;;;;;;;;;;;26.32;34.58;100500.75;5092590;28;19974;-68
2023/08/24 00:13:56;;;;;;;;;;;;;;;26.31;34.13;100499.13;5093079;28;19947;-69
2023/08/24 00:16:21;;;;;;;;;;;;;;;26.26;34.42;100502.75;5097396;28;20015;-69
2023/08/24 00:18:46;;;;;;;;;;;;;;;26.24;34.33;100503.09;5077563;28;19924;-69
2023/08/24 00:21:22;;;;;;;;;;;;;;;26.15;34.45;100501.28;5054144;28;19916;-69
2023/08/24 00:23:48;;;;;;;;;;;;;;;26.12;34.25;100507.41;5056534;28;19919;-69
2023/08/24 00:26:18;;;;;;;;;;;;;;;26.07;34.18;100500.84;5052423;28;20536;-69
2023/08/24 00:28:43;;;;;;;;;;;;;;;25.98;34.56;100499.84;5052483;28;19967;-69
2023/08/24 00:31:08;;;;;;;;;;;;;;;25.93;34.66;100494.44;5052246;28;19966;-69
2023/08/24 00:33:34;;;;;;;;;;;;;;;25.90;35.59;100497.75;5054397;28;20000;-69
2023/08/24 00:36:00;;;;;;;;;;;;;;;25.84;34.81;100497.00;5057185;28;19939;-69
2023/08/24 00:38:25;;;;;;;;;;;;;;;25.80;34.68;100486.91;5072805;28;19943;-69
2023/08/24 00:40:52;;;;;;;;;;;;;;;25.79;34.80;100493.50;5073031;28;20356;-69
2023/08/24 00:43:18;;;;;;;;;;;;;;;25.73;34.99;100495.50;5072170;28;20550;-69
2023/08/24 00:45:43;;;;;;;;;;;;;;;25.68;34.78;100504.63;5072249;28;19962;-69
2023/08/24 00:48:09;;;;;;;;;;;;;;;25.68;35.29;100506.56;5070936;28;19920;-68
2023/08/24 00:50:34;;;;;;;;;;;;;;;25.70;34.65;100507.06;5072349;28;20011;-69
2023/08/24 00:53:00;;;;;;;;;;;;;;;25.66;35.07;100501.34;5072295;28;19919;-69
2023/08/24 00:55:27;;;;;;;;;;;;;;;25.67;34.75;100502.19;5071351;28;20293;-68
2023/08/24 00:57:53;;;;;;;;;;;;;;;25.60;35.30;100505.28;5078190;28;19916;-69
2023/08/24 01:00:18;;;;;;;;;;;;;;;25.55;35.08;100496.28;5095617;28;20356;-68
2023/08/24 01:02:44;;;;;;;;;;;;;;;25.59;34.78;100508.31;5084547;28;19912;-69
2023/08/24 01:05:09;;;;;;;;;;;;;;;25.58;34.74;100492.94;5095705;28;19924;-68
2023/08/24 01:07:36;;;;;;;;;;;;;;;25.49;35.21;100498.25;5097777;28;19919;-68
2023/08/24 01:10:03;;;;;;;;;;;;;;;25.47;35.25;100495.81;5096487;28;19931;-68
2023/08/24 01:12:37;;;;;;;;;;;;;;;25.50;34.98;100497.13;5096310;28;20296;-68
2023/08/24 01:15:02;;;;;;;;;;;;;;;25.48;35.60;100499.34;5096568;28;19912;-69
2023/08/24 01:17:29;;;;;;;;;;;;;;;25.46;34.91;100501.59;5085010;28;19989;-68
2023/08/24 01:19:55;;;;;;;;;;;;;;;25.43;35.03;100504.94;5075368;28;20014;-68
2023/08/24 01:22:32;;;;;;;;;;;;;;;25.43;35.74;100511.25;5075473;28;19913;-69
2023/08/24 01:24:57;;;;;;;;;;;;;;;25.48;36.11;100511.19;5075797;28;19913;-69
2023/08/24 01:27:23;;;;;;;;;;;;;;;25.56;35.60;100511.66;5075666;28;19912;-68
2023/08/24 01:29:48;;;;;;;;;;;;;;;25.55;35.16;100516.34;5075656;28;19912;-69
2023/08/24 01:32:14;;;;;;;;;;;;;;;25.42;36.79;100515.09;5060112;28;19919;-68
2023/08/24 01:34:39;;;;;;;;;;;;;;;25.38;35.95;100516.00;5078347;28;19912;-68
2023/08/24 01:37:06;;;;;;;;;;;;;;;25.41;35.97;100518.16;5087446;28;19951;-68
2023/08/24 01:39:40;;;;;;;;;;;;;;;25.40;35.35;100513.75;5069889;28;19913;-68
2023/08/24 01:42:08;;;;;;;;;;;;;;;25.28;36.24;100511.44;5086404;28;20543;-68
2023/08/24 01:44:35;;;;;;;;;;;;;;;25.28;36.13;100508.69;5086594;28;19913;-68
2023/08/24 01:47:03;;;;;;;;;;;;;;;25.27;35.84;100510.59;5068527;28;19953;-68
2023/08/24 01:49:29;;;;;;;;;;;;;;;25.25;35.21;100509.25;5066644;28;20019;-68
2023/08/24 01:51:54;;;;;;;;;;;;;;;25.22;35.54;100515.28;5065873;28;19956;-69
2023/08/24 01:54:20;;;;;;;;;;;;;;;25.16;35.47;100516.47;5062296;28;19912;-68
2023/08/24 01:56:45;;;;;;;;;;;;;;;25.14;34.88;100515.94;5078835;28;19916;-68
2023/08/24 01:59:10;;;;;;;;;;;;;;;25.13;34.98;100520.63;5078576;28;19919;-68
2023/08/24 02:01:35;;;;;;;;;;;;;;;25.06;34.48;100515.44;5083532;28;19912;-68
2023/08/24 02:04:01;;;;;;;;;;;;;;;25.06;34.81;100525.63;5082754;28;19959;-68
2023/08/24 02:06:27;;;;;;;;;;;;;;;25.01;34.65;100517.44;5101551;28;19979;-68
2023/08/24 02:08:52;;;;;;;;;;;;;;;25.05;34.86;100518.47;5078333;28;19912;-68
2023/08/24 02:11:17;;;;;;;;;;;;;;;24.97;34.82;100514.44;5077154;28;19912;-68
2023/08/24 02:13:43;;;;;;;;;;;;;;;24.97;34.71;100533.66;5094653;28;19947;-68
2023/08/24 02:16:08;;;;;;;;;;;;;;;24.58;36.06;100528.22;5094748;28;19912;-68
2023/08/24 02:18:34;;;;;;;;;;;;;;;24.42;36.46;100524.72;5080657;28;19934;-68
2023/08/24 02:20:59;;;;;;;;;;;;;;;24.44;36.55;100526.09;5075049;28;20338;-68
2023/08/24 02:23:24;;;;;;;;;;;;;;;24.50;36.38;100530.44;5056728;28;19913;-68
2023/08/24 02:25:50;;;;;;;;;;;;;;;24.57;36.03;100532.06;5073716;28;19919;-68
2023/08/24 02:28:15;;;;;;;;;;;;;;;24.64;36.11;100525.13;5073617;28;20285;-68
2023/08/24 02:30:40;;;;;;;;;;;;;;;24.74;36.13;100529.75;5073550;28;19916;-68
2023/08/24 02:33:06;;;;;;;;;;;;;;;24.79;35.40;100535.19;5082101;28;19913;-68
2023/08/24 02:35:31;;;;;;;;;;;;;;;24.85;35.39;100535.97;5080934;28;20435;-68
2023/08/24 02:37:57;;;;;;;;;;;;;;;24.77;35.37;100539.34;5079509;28;19923;-68
2023/08/24 02:40:22;;;;;;;;;;;;;;;24.83;34.91;100538.19;5079227;28;19912;-68
2023/08/24 02:42:47;;;;;;;;;;;;;;;24.84;35.36;100545.34;5078246;28;19912;-68
2023/08/24 02:45:13;;;;;;;;;;;;;;;24.90;34.71;100550.47;5068612;28;19919;-68
2023/08/24 02:47:38;;;;;;;;;;;;;;;24.91;34.77;100552.13;5068102;28;19918;-68
2023/08/24 02:50:06;;;;;;;;;;;;;;;24.92;34.86;100552.94;5068337;28;19913;-68
2023/08/24 02:52:31;;;;;;;;;;;;;;;25.15;34.18;100540.38;5086746;28;19920;-68
2023/08/24 02:54:56;;;;;;;;;;;;;;;25.15;33.77;100537.63;5083450;28;19913;-68
2023/08/24 02:57:21;;;;;;;;;;;;;;;25.09;33.73;100539.63;5062798;28;20022;-68
2023/08/24 02:59:47;;;;;;;;;;;;;;;25.08;34.20;100545.41;5079731;28;19983;-68
2023/08/24 03:02:12;;;;;;;;;;;;;;;24.95;34.20;100535.06;5055077;28;19919;-68
2023/08/24 03:04:37;;;;;;;;;;;;;;;24.88;33.73;100538.97;5054250;28;20003;-68
2023/08/24 03:07:03;;;;;;;;;;;;;;;24.83;34.12;100535.44;5064080;28;19920;-68
2023/08/24 03:09:28;;;;;;;;;;;;;;;24.80;34.35;100538.78;5073094;28;19969;-68
2023/08/24 03:11:53;;;;;;;;;;;;;;;24.76;34.20;100524.78;5055166;28;19943;-68
2023/08/24 03:14:19;;;;;;;;;;;;;;;24.65;34.84;100529.53;5072865;28;19912;-69
2023/08/24 03:16:44;;;;;;;;;;;;;;;24.61;34.33;100533.13;5072745;28;20361;-68
2023/08/24 03:19:10;;;;;;;;;;;;;;;24.52;34.73;100533.75;5072819;28;19916;-68
2023/08/24 03:21:36;;;;;;;;;;;;;;;24.43;34.56;100532.69;5072780;28;19916;-68
2023/08/24 03:24:04;;;;;;;;;;;;;;;24.42;35.03;100533.78;5072703;28;20456;-68
2023/08/24 03:26:29;;;;;;;;;;;;;;;24.38;35.05;100534.66;5054951;28;20046;-68
2023/08/24 03:28:54;;;;;;;;;;;;;;;24.27;35.60;100542.13;5075262;28;20007;-68
2023/08/24 03:31:20;;;;;;;;;;;;;;;23.89;36.54;100550.81;5068260;28;19936;-68
2023/08/24 03:33:45;;;;;;;;;;;;;;;23.78;36.69;100544.50;5068140;28;19917;-68
2023/08/24 03:36:11;;;;;;;;;;;;;;;23.85;36.89;100543.44;5067797;28;19916;-68
2023/08/24 03:38:36;;;;;;;;;;;;;;;23.92;37.15;100547.53;5067643;28;19916;-68
2023/08/24 03:41:05;;;;;;;;;;;;;;;23.98;37.18;100551.06;5083631;28;19919;-68
2023/08/24 03:43:33;;;;;;;;;;;;;;;24.07;36.91;100554.00;5064145;28;19919;-69
2023/08/24 03:45:58;;;;;;;;;;;;;;;24.18;36.83;100558.34;5065407;28;19913;-68
2023/08/24 03:48:23;;;;;;;;;;;;;;;24.26;36.54;100551.47;5078074;28;20007;-68
2023/08/24 03:50:49;;;;;;;;;;;;;;;24.29;36.57;100551.72;5081603;28;19913;-68
2023/08/24 03:53:14;;;;;;;;;;;;;;;24.38;36.48;100559.34;5081976;28;19916;-68
2023/08/24 03:55:40;;;;;;;;;;;;;;;24.47;36.22;100555.72;5075926;28;19951;-69
2023/08/24 03:58:05;;;;;;;;;;;;;;;24.73;35.06;100564.63;5072626;28;19985;-69
2023/08/24 04:00:30;;;;;;;;;;;;;;;24.81;34.83;100565.94;5072712;28;19912;-69
2023/08/24 04:02:56;;;;;;;;;;;;;;;24.78;34.49;100572.03;5076492;28;19927;-68
2023/08/24 04:05:21;;;;;;;;;;;;;;;24.71;34.42;100571.53;5092769;28;19913;-68
2023/08/24 04:07:47;;;;;;;;;;;;;;;24.69;35.31;100574.53;5057010;28;20002;-69
2023/08/24 04:10:12;;;;;;;;;;;;;;;24.69;35.35;100573.75;5054519;28;19913;-69
2023/08/24 04:12:38;;;;;;;;;;;;;;;24.53;35.48;100578.50;5054740;28;19912;-69
2023/08/24 04:15:04;;;;;;;;;;;;;;;24.42;35.26;100583.19;5088705;28;19931;-68
2023/08/24 04:17:29;;;;;;;;;;;;;;;24.39;35.59;100580.22;5067901;28;20358;-68
2023/08/24 04:19:55;;;;;;;;;;;;;;;24.42;34.75;100582.38;5075540;28;20007;-69
2023/08/24 04:22:20;;;;;;;;;;;;;;;24.31;35.37;100576.97;5076656;28;20369;-68
2023/08/24 04:24:45;;;;;;;;;;;;;;;24.26;34.85;100584.41;5077262;28;19917;-68
2023/08/24 04:27:11;;;;;;;;;;;;;;;24.20;35.28;100591.00;5074484;28;20498;-68
2023/08/24 04:29:36;;;;;;;;;;;;;;;24.27;35.76;100586.84;5073931;28;19916;-68
2023/08/24 04:32:02;;;;;;;;;;;;;;;24.32;35.75;100591.50;5081589;28;19920;-68
2023/08/24 04:34:27;;;;;;;;;;;;;;;24.25;35.57;100589.06;5042390;28;19919;-68
2023/08/24 04:36:54;;;;;;;;;;;;;;;24.16;35.70;100590.75;5075831;28;19912;-68
2023/08/24 04:39:20;;;;;;;;;;;;;;;24.07;35.80;100590.53;5075869;28;20381;-68
2023/08/24 04:41:45;;;;;;;;;;;;;;;24.01;35.60;100594.38;5075619;28;19966;-69
2023/08/24 04:44:10;;;;;;;;;;;;;;;24.09;35.79;100598.44;5075666;28;19912;-68
2023/08/24 04:46:35;;;;;;;;;;;;;;;24.05;36.15;100592.75;5075687;28;19917;-68
2023/08/24 04:49:01;;;;;;;;;;;;;;;24.04;35.82;100588.34;5057299;28;19919;-68
2023/08/24 04:51:27;;;;;;;;;;;;;;;23.98;35.76;100599.59;5075503;28;19972;-68
2023/08/24 04:53:53;;;;;;;;;;;;;;;23.95;35.90;100601.81;5074901;28;19987;-68
2023/08/24 04:56:19;;;;;;;;;;;;;;;23.94;36.11;100604.81;5085882;28;19916;-68
2023/08/24 04:58:54;;;;;;;;;;;;;;;23.90;34.92;100603.75;5071486;28;19920;-68
2023/08/24 05:01:20;;;;;;;;;;;;;;;23.86;35.13;100603.47;5070835;28;19958;-68
2023/08/24 05:03:45;;;;;;;;;;;;;;;23.87;35.18;100612.56;5070753;28;19924;-68
2023/08/24 05:06:10;;;;;;;;;;;;;;;23.96;34.99;100619.09;5069907;28;19912;-68
2023/08/24 05:08:36;;;;;;;;;;;;;;;23.96;35.13;100613.63;5086556;28;20353;-68
2023/08/24 05:11:01;;;;;;;;;;;;;;;23.93;35.02;100614.16;5080387;28;20027;-68
2023/08/24 05:13:26;;;;;;;;;;;;;;;23.89;34.98;100610.34;5084181;28;19913;-68
2023/08/24 05:15:51;;;;;;;;;;;;;;;23.53;36.10;100613.13;5087978;28;19935;-68
2023/08/24 05:18:17;;;;;;;;;;;;;;;23.41;36.55;100629.06;5055784;28;20010;-68
2023/08/24 05:20:42;;;;;;;;;;;;;;;23.49;36.43;100612.84;5051175;28;19952;-68
2023/08/24 05:23:07;;;;;;;;;;;;;;;23.64;36.48;100613.94;5050215;28;20028;-69
2023/08/24 05:25:34;;;;;;;;;;;;;;;23.77;36.52;100603.22;5049319;28;19917;-69
2023/08/24 05:27:59;;;;;;;;;;;;;;;23.89;35.91;100607.59;5067519;28;20011;-68
2023/08/24 05:30:25;;;;;;;;;;;;;;;24.04;35.92;100607.53;5049744;28;19919;-68
2023/08/24 05:32:50;;;;;;;;;;;;;;;24.09;35.49;100602.03;5067009;28;19916;-68
2023/08/24 05:35:15;;;;;;;;;;;;;;;24.19;35.26;100603.09;5066916;28;19924;-68
2023/08/24 05:37:40;;;;;;;;;;;;;;;24.30;35.03;100601.94;5047844;28;19921;-68
2023/08/24 05:40:06;;;;;;;;;;;;;;;24.42;34.95;100596.91;5068673;28;19920;-69
2023/08/24 05:42:32;;;;;;;;;;;;;;;24.47;34.73;100602.38;5067610;28;19919;-69
2023/08/24 05:44:57;;;;;;;;;;;;;;;24.55;34.70;100606.50;5068840;28;19924;-68
2023/08/24 05:47:22;;;;;;;;;;;;;;;24.62;34.71;100606.19;5068425;28;20009;-69
2023/08/24 05:49:47;;;;;;;;;;;;;;;24.68;34.22;100613.28;5069162;28;19920;-69
2023/08/24 05:52:13;;;;;;;;;;;;;;;24.72;34.50;100603.34;5068706;28;19960;-68
2023/08/24 05:54:41;;;;;;;;;;;;;;;24.79;33.96;100609.34;5085939;28;19938;-69
2023/08/24 05:57:06;;;;;;;;;;;;;;;24.79;34.31;100614.84;5080552;28;19965;-69
2023/08/24 05:59:33;;;;;;;;;;;;;;;24.85;34.33;100612.88;5057000;28;19913;-69
2023/08/24 06:01:58;;;;;;;;;;;;;;;24.84;34.12;100606.56;5071940;28;19947;-69
2023/08/24 06:04:23;;;;;;;;;;;;;;;24.89;34.17;100603.00;5063355;28;19921;-69
2023/08/24 06:06:48;;;;;;;;;;;;;;;24.92;34.27;100605.97;5057563;28;20001;-69
2023/08/24 06:09:17;;;;;;;;;;;;;;;25.00;34.08;100596.31;5073775;28;20004;-69
2023/08/24 06:11:42;;;;;;;;;;;;;;;25.04;33.99;100602.84;5073587;28;19917;-68
2023/08/24 06:14:07;;;;;;;;;;;;;;;25.07;33.81;100599.53;5073880;28;19985;-68
2023/08/24 06:16:33;;;;;;;;;;;;;;;25.14;33.84;100601.13;5055416;28;19920;-69
2023/08/24 06:19:00;;;;;;;;;;;;;;;25.20;33.76;100608.22;5073708;28;20280;-68
2023/08/24 06:21:25;;;;;;;;;;;;;;;25.23;33.75;100607.66;5073806;28;19917;-65
2023/08/24 06:23:50;;;;;;;;;;;;;;;25.28;33.68;100613.97;5073865;28;19936;-66
2023/08/24 06:26:16;;;;;;;;;;;;;;;25.30;33.73;100619.97;5073228;28;19928;-66
2023/08/24 06:28:42;;;;;;;;;;;;;;;25.38;33.44;100620.47;5073021;28;20329;-65
2023/08/24 06:31:07;;;;;;;;;;;;;;;25.39;33.63;100611.94;5073477;28;19920;-65
2023/08/24 06:33:33;;;;;;;;;;;;;;;25.45;33.38;100612.72;5073345;28;20326;-65
2023/08/24 06:35:58;;;;;;;;;;;;;;;25.52;33.49;100620.59;5070914;28;19925;-65
2023/08/24 06:38:24;;;;;;;;;;;;;;;25.53;32.86;100614.81;5072604;28;19920;-65
2023/08/24 06:40:49;;;;;;;;;;;;;;;25.65;33.07;100612.50;5072686;28;20365;-64
2023/08/24 06:43:14;;;;;;;;;;;;;;;25.79;33.17;100614.53;5072824;28;20368;-65
2023/08/24 06:45:40;;;;;;;;;;;;;;;26.00;33.13;100615.16;5073093;28;19916;-64
2023/08/24 06:48:07;;;;;;;;;;;;;;;26.18;32.98;100621.81;5072644;28;19924;-64
2023/08/24 06:50:32;;;;;;;;;;;;;;;26.41;32.85;100620.97;5072880;28;20426;-64
2023/08/24 06:52:57;;;;;;;;;;;;;;;26.53;32.40;100619.72;5054527;28;19958;-65
2023/08/24 06:55:22;;;;;;;;;;;;;;;26.73;32.26;100621.41;5053760;28;19939;-67
2023/08/24 06:57:48;;;;;;;;;;;;;;;26.85;31.97;100616.22;5072585;28;20007;-62
2023/08/24 07:00:15;;;;;;;;;;;;;;;27.03;31.55;100615.38;5072532;28;19970;-65
2023/08/24 07:02:40;;;;;;;;;;;;;;;27.14;31.53;100626.25;5070506;28;19916;-67
2023/08/24 07:05:08;;;;;;;;;;;;;;;27.22;30.78;100622.81;5053153;28;20427;-67
2023/08/24 07:07:33;;;;;;;;;;;;;;;27.28;31.15;100616.09;5052420;28;19962;-66
2023/08/24 07:09:58;;;;;;;;;;;;;;;27.46;31.37;100628.19;5052475;28;19917;-68
2023/08/24 07:12:23;;;;;;;;;;;;;;;27.58;31.05;100625.78;5034898;28;19913;-67
2023/08/24 07:14:49;;;;;;;;;;;;;;;27.74;30.77;100626.28;5052196;28;20599;-67
2023/08/24 07:17:14;;;;;;;;;;;;;;;27.81;30.53;100623.16;5051969;28;19956;-67
2023/08/24 07:19:39;;;;;;;;;;;;;;;27.94;30.44;100621.53;5052098;28;19993;-65
2023/08/24 07:22:05;;;;;;;;;;;;;;;28.06;30.00;100623.78;5052112;28;19923;-66
2023/08/24 07:24:30;;;;;;;;;;;;;;;28.23;30.09;100617.63;5052350;28;19933;-65
2023/08/24 07:26:55;;;;;;;;;;;;;;;28.28;29.47;100623.84;5052348;28;20382;-66
2023/08/24 07:29:21;;;;;;;;;;;;;;;28.37;29.44;100632.25;5052208;28;19925;-65
2023/08/24 07:31:46;;;;;;;;;;;;;;;28.44;29.47;100638.16;5052118;28;19913;-65
2023/08/24 07:34:11;;;;;;;;;;;;;;;28.57;29.02;100633.78;5051987;28;20015;-65
2023/08/24 07:36:37;;;;;;;;;;;;;;;28.60;28.74;100629.56;5052307;28;19939;-66
2023/08/24 07:39:02;;;;;;;;;;;;;;;28.72;29.37;100629.84;5051622;28;19921;-65
2023/08/24 07:41:27;;;;;;;;;;;;;;;28.85;28.91;100625.41;5052415;28;19920;-66
2023/08/24 07:43:53;;;;;;;;;;;;;;;28.98;29.43;100629.25;5034638;28;19913;-66
2023/08/24 07:46:18;;;;;;;;;;;;;;;29.05;28.82;100638.72;5052810;28;19966;-64
2023/08/24 07:48:43;;;;;;;;;;;;;;;29.01;28.36;100637.72;5052341;28;19987;-65
2023/08/24 07:51:08;;;;;;;;;;;;;;;29.07;28.27;100639.22;5052069;28;20731;-65
2023/08/24 07:53:34;;;;;;;;;;;;;;;29.06;27.52;100640.34;5052473;28;20012;-65
2023/08/24 07:56:01;;;;;;;;;;;;;;;29.07;27.47;100647.53;5051660;28;19917;-65
2023/08/24 07:58:26;;;;;;;;;;;;;;;29.08;27.15;100643.59;5052461;28;19960;-65
2023/08/24 08:00:52;;;;;;;;;;;;;;;29.05;27.29;100644.25;5052453;28;20003;-67
2023/08/24 08:03:18;;;;;;;;;;;;;;;28.94;27.21;100640.91;5058217;28;19920;-65
2023/08/24 08:05:43;;;;;;;;;;;;;;;28.71;27.41;100645.59;5072860;28;19985;-67
2023/08/24 08:08:08;;;;;;;;;;;;;;;28.62;27.61;100644.72;5076346;28;20394;-66
2023/08/24 08:10:33;;;;;;;;;;;;;;;28.44;27.32;100648.41;5076445;28;19913;-66
2023/08/24 08:12:59;;;;;;;;;;;;;;;28.30;27.58;100642.88;5076834;28;19916;-67
2023/08/24 08:15:24;;;;;;;;;;;;;;;28.32;27.87;100649.72;5076124;28;20280;-65
2023/08/24 08:17:49;;;;;;;;;;;;;;;28.45;28.59;100641.75;5075948;28;19927;-67
2023/08/24 08:20:15;;;;;;;;;;;;;;;28.49;28.45;100651.88;5075515;28;20127;-66
2023/08/24 08:22:40;;;;;;;;;;;;;;;28.54;28.59;100656.50;5076009;28;19917;-68
2023/08/24 08:25:06;;;;;;;;;;;;;;;28.41;27.86;100663.63;5075826;28;19916;-67
2023/08/24 08:27:33;;;;;;;;;;;;;;;28.35;27.74;100656.59;5057986;28;19993;-67
2023/08/24 08:29:58;;;;;;;;;;;;;;;28.35;28.25;100651.06;5075635;28;19919;-69
2023/08/24 08:32:26;;;;;;;;;;;;;;;28.45;28.38;100647.25;5075865;28;19917;-68
2023/08/24 08:34:52;;;;;;;;;;;;;;;28.34;27.95;100647.50;5075671;28;20437;-68
2023/08/24 08:37:17;;;;;;;;;;;;;;;28.21;28.14;100648.31;5075554;28;20058;-67
2023/08/24 08:39:43;;;;;;;;;;;;;;;28.24;28.24;100650.47;5073683;28;19921;-66
2023/08/24 08:42:13;;;;;;;;;;;;;;;28.14;28.48;100647.94;5063354;28;20008;-67
2023/08/24 08:44:38;;;;;;;;;;;;;;;28.15;28.53;100652.31;5057882;28;19913;-64
2023/08/24 08:47:06;;;;;;;;;;;;;;;28.33;28.68;100648.63;5075129;28;20533;-66
2023/08/24 08:49:33;;;;;;;;;;;;;;;28.43;28.87;100655.03;5074572;28;19947;-67
2023/08/24 08:51:58;;;;;;;;;;;;;;;28.41;28.33;100654.53;5075308;28;19923;-67
2023/08/24 08:54:23;;;;;;;;;;;;;;;28.35;28.09;100662.13;5074554;28;19913;-66
2023/08/24 08:56:49;;;;;;;;;;;;;;;28.42;28.12;100645.94;5075171;28;19920;-65
2023/08/24 08:59:15;;;;;;;;;;;;;;;28.43;27.50;100649.53;5073869;28;19920;-65
2023/08/24 09:01:41;;;;;;;;;;;;;;;28.49;27.91;100646.34;5074067;28;20026;-67
2023/08/24 09:04:07;;;;;;;;;;;;;;;28.64;28.00;100652.69;5074776;28;19928;-66
2023/08/24 09:06:33;;;;;;;;;;;;;;;28.75;28.22;100651.31;5074536;28;19917;-66
2023/08/24 09:08:59;;;;;;;;;;;;;;;28.94;27.96;100651.16;5062062;28;19917;-66
2023/08/24 09:11:25;;;;;;;;;;;;;;;28.99;27.75;100661.28;5062797;28;19951;-66
2023/08/24 09:13:50;;;;;;;;;;;;;;;29.04;28.23;100655.63;5074710;28;20321;-67
2023/08/24 09:16:17;;;;;;;;;;;;;;;29.13;27.95;100662.03;5055550;28;20003;-67
2023/08/24 09:18:51;;;;;;;;;;;;;;;29.22;27.32;100660.19;5064599;28;19921;-68
2023/08/24 09:21:16;;;;;;;;;;;;;;;29.32;27.58;100653.56;5074410;28;19955;-67
2023/08/24 09:23:46;;;;;;;;;;;;;;;29.30;27.38;100655.84;5074906;28;19951;-67
2023/08/24 09:26:11;;;;;;;;;;;;;;;29.42;27.66;100647.78;5068668;28;20378;-69
2023/08/24 09:28:38;;;;;;;;;;;;;;;29.57;27.13;100654.03;5065967;28;19921;-66
2023/08/24 09:31:04;;;;;;;;;;;;;;;29.50;27.43;100651.75;5064408;28;19917;-66
2023/08/24 09:33:29;;;;;;;;;;;;;;;29.44;26.97;100656.59;5067030;28;19979;-68
2023/08/24 09:36:00;;;;;;;;;;;;;;;29.33;27.13;100655.22;5065576;28;19917;-67
2023/08/24 09:38:26;;;;;;;;;;;;;;;29.15;27.13;100657.84;5062943;28;20466;-66
2023/08/24 09:40:53;;;;;;;;;;;;;;;29.09;27.70;100644.44;5072686;28;19919;-67
2023/08/24 09:43:18;;;;;;;;;;;;;;;29.13;26.83;100648.22;5074424;28;20376;-67
2023/08/24 09:45:50;;;;;;;;;;;;;;;29.16;27.50;100647.63;5066144;28;19996;-67
2023/08/24 09:48:17;;;;;;;;;;;;;;;29.38;27.34;100641.22;5056987;28;19921;-64
2023/08/24 09:50:47;;;;;;;;;;;;;;;29.52;26.78;100650.28;5052554;28;20299;-65
2023/08/24 09:53:15;;;;;;;;;;;;;;;29.65;27.13;100654.09;5053611;28;20019;-65
2023/08/24 09:55:43;;;;;;;;;;;;;;;29.69;27.22;100646.78;5067604;28;19966;-65
2023/08/24 09:58:09;;;;;;;;;;;;;;;29.81;27.34;100646.22;5070610;28;19968;-64
2023/08/24 10:00:35;;;;;;;;;;;;;;;29.80;26.96;100649.31;5068838;28;19985;-64
2023/08/24 10:03:01;;;;;;;;;;;;;;;30.01;26.29;100644.81;5056933;28;19935;-64
2023/08/24 10:05:27;;;;;;;;;;;;;;;30.14;26.62;100651.38;5073733;28;19917;-63
2023/08/24 10:07:54;;;;;;;;;;;;;;;30.39;26.68;100649.03;5074541;28;19913;-63
2023/08/24 10:10:21;;;;;;;;;;;;;;;30.75;26.78;100648.75;5073884;28;19916;-63
2023/08/24 10:12:50;;;;;;;;;;;;;;;30.98;26.40;100640.28;5073774;28;19917;-67
2023/08/24 10:15:17;;;;;;;;;;;;;;;31.21;26.17;100640.91;5055178;28;19916;-64
2023/08/24 10:17:43;;;;;;;;;;;;;;;31.29;25.50;100634.53;5073809;28;19921;-64
2023/08/24 10:20:10;;;;;;;;;;;;;;;31.33;25.67;100629.94;5073005;28;20434;-64
2023/08/24 10:22:35;;;;;;;;;;;;;;;31.16;25.14;100635.53;5073653;28;19962;-64
2023/08/24 10:25:01;;;;;;;;;;;;;;;31.28;24.62;100641.25;5073159;28;20346;-64
2023/08/24 10:27:27;;;;;;;;;;;;;;;31.36;25.11;100643.16;5073145;28;19924;-64
2023/08/24 10:29:52;;;;;;;;;;;;;;;31.44;24.84;100639.56;5072395;28;20400;-64
2023/08/24 10:32:19;;;;;;;;;;;;;;;31.66;24.83;100632.16;5072424;28;19922;-64
2023/08/24 10:34:45;;;;;;;;;;;;;;;31.83;24.61;100643.22;5072945;28;19931;-64
2023/08/24 10:37:11;;;;;;;;;;;;;;;31.97;25.00;100629.09;5073070;28;19943;-64
2023/08/24 10:39:54;;;;;;;;;;;;;;;32.19;25.05;100627.22;5055385;28;20328;-64
2023/08/24 10:42:21;;;;;;;;;;;;;;;32.29;24.52;100642.69;5069957;28;20007;-64
2023/08/24 10:44:47;;;;;;;;;;;;;;;32.04;24.60;100634.16;5072797;28;20003;-64
2023/08/24 10:47:16;;;;;;;;;;;;;;;32.34;24.13;100637.75;5072673;28;19916;-64
2023/08/24 10:49:42;;;;;;;;;;;;;;;32.48;24.01;100631.91;5072657;28;19978;-64
2023/08/24 10:52:18;;;;;;;;;;;;;;;32.58;23.96;100625.19;5072446;28;19928;-64
2023/08/24 10:54:44;;;;;;;;;;;;;;;32.76;23.63;100623.03;5072237;28;20583;-64
2023/08/24 10:57:17;;;;;;;;;;;;;;;33.02;24.37;100622.00;5072622;28;19920;-64
2023/08/24 10:59:42;;;;;;;;;;;;;;;33.33;23.44;100619.56;5072727;28;20349;-64
2023/08/24 11:02:17;;;;;;;;;;;;;;;33.63;23.45;100629.72;5072076;28;19927;-64
2023/08/24 11:05:02;;;;;;;;;;;;;;;33.98;23.01;100624.53;5072395;28;19927;-64
2023/08/24 11:07:27;;;;;;;;;;;;;;;33.83;22.33;100623.28;5072532;28;20387;-65
2023/08/24 11:09:56;;;;;;;;;;;;;;;33.91;22.27;100621.53;5054898;28;19924;-63
2023/08/24 11:12:21;;;;;;;;;;;;;;;34.14;22.94;100625.47;5072130;28;19917;-64
2023/08/24 11:14:58;;;;;;;;;;;;;;;34.27;22.21;100617.94;5072481;28;19916;-64
2023/08/24 11:17:24;;;;;;;;;;;;;;;34.37;22.14;100615.81;5072113;28;19920;-64
2023/08/24 11:19:50;;;;;;;;;;;;;;;34.55;21.78;100614.38;5072427;28;20066;-64
2023/08/24 11:22:16;;;;;;;;;;;;;;;34.81;21.99;100613.16;5054087;28;19916;-65
2023/08/24 11:24:42;;;;;;;;;;;;;;;34.93;21.61;100615.09;5072598;28;19916;-66
2023/08/24 11:27:08;;;;;;;;;;;;;;;35.09;22.04;100613.16;5072616;28;20010;-66
2023/08/24 11:29:33;;;;;;;;;;;;;;;35.25;21.83;100614.03;5072726;28;20320;-67
2023/08/24 11:31:59;;;;;;;;;;;;;;;35.45;21.47;100602.94;5072281;28;19927;-66
2023/08/24 11:34:24;;;;;;;;;;;;;;;35.74;21.27;100603.72;5072437;28;19917;-65
2023/08/24 11:36:50;;;;;;;;;;;;;;;36.00;21.69;100605.94;5072119;28;19917;-63
2023/08/24 11:39:19;;;;;;;;;;;;;;;36.25;21.16;100609.31;5071849;28;20158;-64
2023/08/24 11:42:05;;;;;;;;;;;;;;;36.43;20.78;100599.31;5072454;28;19912;-64
2023/08/24 11:44:46;;;;;;;;;;;;;;;36.61;20.63;100607.31;5071351;28;19916;-63
2023/08/24 11:47:12;;;;;;;;;;;;;;;36.61;19.82;100607.31;5057995;28;19924;-65
2023/08/24 11:49:37;;;;;;;;;;;;;;;36.66;20.41;100601.41;5072504;28;19916;-65
2023/08/24 11:52:03;;;;;;;;;;;;;;;36.87;19.38;100598.25;5071795;28;19986;-65
2023/08/24 11:54:28;;;;;;;;;;;;;;;36.90;19.30;100586.28;5071187;28;20299;-64
2023/08/24 11:56:53;;;;;;;;;;;;;;;37.16;19.54;100585.63;5072220;28;19912;-64
2023/08/24 11:59:19;;;;;;;;;;;;;;;37.36;18.63;100589.16;5071914;28;19921;-64
2023/08/24 12:01:45;;;;;;;;;;;;;;;37.53;19.23;100582.25;5070862;28;19920;-66
2023/08/24 12:04:10;;;;;;;;;;;;;;;37.67;18.67;100584.53;5071417;28;20308;-67
2023/08/24 12:06:36;;;;;;;;;;;;;;;37.87;18.50;100585.25;5071917;28;19929;-68
2023/08/24 12:09:04;;;;;;;;;;;;;;;37.94;18.25;100588.13;5071359;28;19973;-65
2023/08/24 12:11:34;;;;;;;;;;;;;;;37.85;18.67;100583.97;5071989;28;19916;-67
2023/08/24 12:13:59;;;;;;;;;;;;;;;37.99;18.10;100589.81;5070389;28;20214;-67
2023/08/24 12:16:25;;;;;;;;;;;;;;;38.20;18.30;100586.53;5071809;28;19919;-67
2023/08/24 12:18:59;;;;;;;;;;;;;;;38.13;18.74;100578.84;5071378;28;19997;-67
2023/08/24 12:21:25;;;;;;;;;;;;;;;38.21;18.99;100579.72;5071636;28;19916;-64
2023/08/24 12:23:57;;;;;;;;;;;;;;;38.53;18.29;100584.94;5072688;28;20281;-64
2023/08/24 12:26:22;;;;;;;;;;;;;;;38.85;17.93;100574.09;5072002;28;20319;-65
2023/08/24 12:28:52;;;;;;;;;;;;;;;38.83;17.31;100587.72;5071454;28;20003;-65
2023/08/24 12:31:17;;;;;;;;;;;;;;;38.88;17.04;100586.59;5061902;28;19912;-65